createdAt,value
2017-09-16T00:00:45.981Z,974.67
2017-09-16T00:01:55.936Z,974.69
2017-09-16T00:03:06.212Z,974.67
2017-09-16T00:04:16.166Z,974.67
2017-09-16T00:05:26.441Z,974.69
2017-09-16T00:06:36.391Z,974.66
2017-09-16T00:07:46.392Z,974.66
2017-09-16T00:08:56.667Z,974.69
2017-09-16T00:10:06.934Z,974.68
2017-09-16T00:11:16.884Z,974.74
2017-09-16T00:12:27.154Z,974.73
2017-09-16T00:13:37.483Z,974.7
2017-09-16T00:14:47.447Z,974.69
2017-09-16T00:15:57.724Z,974.72
2017-09-16T00:17:07.670Z,974.68
2017-09-16T00:18:17.626Z,974.7
2017-09-16T00:19:27.943Z,974.72
2017-09-16T00:20:37.571Z,974.77
2017-09-16T00:21:47.530Z,974.76
2017-09-16T00:22:57.806Z,974.82
2017-09-16T00:24:08.079Z,974.82
2017-09-16T00:25:18.080Z,974.85
2017-09-16T00:26:27.710Z,974.85
2017-09-16T00:27:38.018Z,974.88
2017-09-16T00:28:47.968Z,974.79
2017-09-16T00:29:58.249Z,974.82
2017-09-16T00:31:08.524Z,974.81
2017-09-16T00:32:18.831Z,974.83
2017-09-16T00:33:29.134Z,974.83
2017-09-16T00:34:39.408Z,974.82
2017-09-16T00:35:49.362Z,974.82
2017-09-16T00:36:59.634Z,974.8
2017-09-16T00:38:09.585Z,974.82
2017-09-16T00:39:19.863Z,974.82
2017-09-16T00:40:30.143Z,974.84
2017-09-16T00:41:40.411Z,974.87
2017-09-16T00:42:50.688Z,974.86
2017-09-16T00:44:00.962Z,974.86
2017-09-16T00:45:11.241Z,974.88
2017-09-16T00:46:21.511Z,974.89
2017-09-16T00:47:31.786Z,974.92
2017-09-16T00:48:41.739Z,974.91
2017-09-16T00:49:51.692Z,974.92
2017-09-16T00:51:01.970Z,974.92
2017-09-16T00:52:11.921Z,974.97
2017-09-16T00:53:22.195Z,974.97
2017-09-16T00:54:32.463Z,974.95
2017-09-16T00:55:42.094Z,974.97
2017-09-16T00:56:52.370Z,974.99
2017-09-16T00:58:02.644Z,974.99
2017-09-16T00:59:12.921Z,975.01
2017-09-16T01:00:23.237Z,975.09
2017-09-16T01:01:33.218Z,975.09
2017-09-16T01:02:43.498Z,975.09
2017-09-16T01:03:53.767Z,975.09
2017-09-16T01:05:03.722Z,975.13
2017-09-16T01:06:13.355Z,975.13
2017-09-16T01:07:23.626Z,975.15
2017-09-16T01:08:33.576Z,975.12
2017-09-16T01:09:43.530Z,975.16
2017-09-16T01:10:53.806Z,975.13
2017-09-16T01:12:04.085Z,975.18
2017-09-16T01:13:14.035Z,975.14
2017-09-16T01:14:24.317Z,975.18
2017-09-16T01:15:34.265Z,975.12
2017-09-16T01:16:44.213Z,975.16
2017-09-16T01:17:54.210Z,975.14
2017-09-16T01:19:04.482Z,975.15
2017-09-16T01:20:14.761Z,975.15
2017-09-16T01:21:24.390Z,975.16
2017-09-16T01:22:34.664Z,975.14
2017-09-16T01:23:44.296Z,975.16
2017-09-16T01:24:54.250Z,975.18
2017-09-16T01:26:04.527Z,975.2
2017-09-16T01:27:14.476Z,975.16
2017-09-16T01:28:24.428Z,975.21
2017-09-16T01:29:34.631Z,975.18
2017-09-16T01:30:44.604Z,975.21
2017-09-16T01:31:54.230Z,975.22
2017-09-16T01:33:04.500Z,975.2
2017-09-16T01:34:14.769Z,975.23
2017-09-16T01:35:25.038Z,975.21
2017-09-16T01:36:35.305Z,975.24
2017-09-16T01:37:45.270Z,975.2
2017-09-16T01:38:55.545Z,975.24
2017-09-16T01:40:05.179Z,975.23
2017-09-16T01:41:15.453Z,975.25
2017-09-16T01:42:25.729Z,975.29
2017-09-16T01:43:36.012Z,975.26
2017-09-16T01:44:46.283Z,975.29
2017-09-16T01:45:56.554Z,975.31
2017-09-16T01:47:06.502Z,975.34
2017-09-16T01:48:16.777Z,975.28
2017-09-16T01:49:27.055Z,975.27
2017-09-16T01:50:37.347Z,975.32
2017-09-16T01:51:46.978Z,975.33
2017-09-16T01:52:57.249Z,975.38
2017-09-16T01:54:07.525Z,975.37
2017-09-16T01:55:17.808Z,975.37
2017-09-16T01:56:27.437Z,975.36
2017-09-16T01:57:37.389Z,975.41
2017-09-16T01:58:47.662Z,975.38
2017-09-16T01:59:57.618Z,975.36
2017-09-16T02:01:07.568Z,975.38
2017-09-16T02:02:17.520Z,975.4
2017-09-16T02:03:27.786Z,975.32
2017-09-16T02:04:37.737Z,975.32
2017-09-16T02:05:48.012Z,975.34
2017-09-16T02:06:58.288Z,975.37
2017-09-16T02:08:08.556Z,975.36
2017-09-16T02:09:18.502Z,975.42
2017-09-16T02:10:28.780Z,975.41
2017-09-16T02:11:39.052Z,975.43
2017-09-16T02:12:49.327Z,975.44
2017-09-16T02:13:58.953Z,975.42
2017-09-16T02:15:09.220Z,975.43
2017-09-16T02:16:19.323Z,975.43
2017-09-16T02:17:29.597Z,975.45
2017-09-16T02:18:39.869Z,975.48
2017-09-16T02:19:50.145Z,975.45
2017-09-16T02:20:59.772Z,975.44
2017-09-16T02:22:10.044Z,975.51
2017-09-16T02:23:20.326Z,975.52
2017-09-16T02:24:30.607Z,975.48
2017-09-16T02:25:40.556Z,975.48
2017-09-16T02:26:50.826Z,975.52
2017-09-16T02:28:00.455Z,975.49
2017-09-16T02:29:10.727Z,975.51
2017-09-16T02:30:21.005Z,975.51
2017-09-16T02:31:31.287Z,975.5
2017-09-16T02:32:41.566Z,975.53
2017-09-16T02:33:51.847Z,975.5
2017-09-16T02:35:02.125Z,975.51
2017-09-16T02:36:12.408Z,975.51
2017-09-16T02:37:22.683Z,975.53
2017-09-16T02:38:32.319Z,975.51
2017-09-16T02:39:42.611Z,975.52
2017-09-16T02:40:52.886Z,975.48
2017-09-16T02:42:03.164Z,975.5
2017-09-16T02:43:13.435Z,975.52
2017-09-16T02:44:23.389Z,975.51
2017-09-16T02:45:33.672Z,975.55
2017-09-16T02:46:43.944Z,975.58
2017-09-16T02:47:54.209Z,975.54
2017-09-16T02:49:03.832Z,975.55
2017-09-16T02:50:13.460Z,975.58
2017-09-16T02:51:23.731Z,975.57
2017-09-16T02:52:33.683Z,975.53
2017-09-16T02:53:43.958Z,975.56
2017-09-16T02:54:54.261Z,975.57
2017-09-16T02:56:04.537Z,975.58
2017-09-16T02:57:14.165Z,975.54
2017-09-16T02:58:24.451Z,975.54
2017-09-16T02:59:34.720Z,975.54
2017-09-16T03:00:44.999Z,975.55
2017-09-16T03:01:54.953Z,975.57
2017-09-16T03:03:04.917Z,975.54
2017-09-16T03:04:15.192Z,975.53
2017-09-16T03:05:24.823Z,975.53
2017-09-16T03:06:35.108Z,975.56
2017-09-16T03:07:45.073Z,975.57
2017-09-16T03:08:55.353Z,975.57
2017-09-16T03:10:04.988Z,975.6
2017-09-16T03:11:14.313Z,975.61
2017-09-16T03:12:24.588Z,975.61
2017-09-16T03:13:34.882Z,975.64
2017-09-16T03:14:45.156Z,975.59
2017-09-16T03:15:54.782Z,975.61
2017-09-16T03:17:05.059Z,975.62
2017-09-16T03:18:14.369Z,975.6
2017-09-16T03:19:24.316Z,975.62
2017-09-16T03:20:34.267Z,975.64
2017-09-16T03:21:44.537Z,975.63
2017-09-16T03:22:54.810Z,975.62
2017-09-16T03:24:05.084Z,975.62
2017-09-16T03:25:14.719Z,975.62
2017-09-16T03:26:24.992Z,975.64
2017-09-16T03:27:35.264Z,975.66
2017-09-16T03:28:45.535Z,975.64
2017-09-16T03:29:55.809Z,975.67
2017-09-16T03:31:06.093Z,975.69
2017-09-16T03:32:16.050Z,975.68
2017-09-16T03:33:26.340Z,975.67
2017-09-16T03:34:36.611Z,975.61
2017-09-16T03:35:46.884Z,975.66
2017-09-16T03:36:56.837Z,975.65
2017-09-16T03:38:09.115Z,975.67
2017-09-16T03:39:19.081Z,975.65
2017-09-16T03:40:29.354Z,975.69
2017-09-16T03:41:39.303Z,975.69
2017-09-16T03:42:49.585Z,975.74
2017-09-16T03:43:59.532Z,975.72
2017-09-16T03:45:09.493Z,975.69
2017-09-16T03:46:19.445Z,975.75
2017-09-16T03:47:29.399Z,975.76
2017-09-16T03:48:39.351Z,975.8
2017-09-16T03:49:49.619Z,975.82
2017-09-16T03:50:59.888Z,975.82
2017-09-16T03:52:10.162Z,975.82
2017-09-16T03:53:20.111Z,975.83
2017-09-16T03:54:30.397Z,975.83
2017-09-16T03:55:40.668Z,975.87
2017-09-16T03:56:49.970Z,975.88
2017-09-16T03:58:00.242Z,975.88
2017-09-16T03:59:10.523Z,975.92
2017-09-16T04:00:20.151Z,975.94
2017-09-16T04:01:30.421Z,975.96
2017-09-16T04:02:40.374Z,975.99
2017-09-16T04:03:50.643Z,976
2017-09-16T04:05:00.596Z,975.98
2017-09-16T04:06:10.545Z,976.03
2017-09-16T04:07:20.850Z,976.06
2017-09-16T04:08:30.810Z,976.08
2017-09-16T04:09:41.118Z,976.13
2017-09-16T04:10:51.385Z,976.13
2017-09-16T04:12:01.331Z,976.15
2017-09-16T04:13:10.960Z,976.12
2017-09-16T04:14:21.229Z,976.17
2017-09-16T04:15:31.499Z,976.2
2017-09-16T04:16:41.775Z,976.21
2017-09-16T04:17:52.049Z,976.16
2017-09-16T04:19:02.321Z,976.23
2017-09-16T04:20:12.276Z,976.18
2017-09-16T04:21:22.546Z,976.21
2017-09-16T04:22:32.818Z,976.2
2017-09-16T04:23:43.089Z,976.23
2017-09-16T04:24:53.360Z,976.22
2017-09-16T04:26:03.306Z,976.25
2017-09-16T04:27:12.933Z,976.25
2017-09-16T04:28:22.896Z,976.3
2017-09-16T04:29:32.203Z,976.29
2017-09-16T04:30:42.151Z,976.27
2017-09-16T04:31:51.777Z,976.25
2017-09-16T04:33:02.043Z,976.33
2017-09-16T04:34:11.999Z,976.33
2017-09-16T04:35:21.629Z,976.36
2017-09-16T04:36:31.577Z,976.37
2017-09-16T04:37:41.858Z,976.38
2017-09-16T04:38:52.132Z,976.42
2017-09-16T04:40:02.402Z,976.42
2017-09-16T04:41:12.682Z,976.44
2017-09-16T04:42:22.955Z,976.4
2017-09-16T04:43:32.903Z,976.43
2017-09-16T04:44:43.178Z,976.41
2017-09-16T04:45:53.460Z,976.43
2017-09-16T04:47:03.730Z,976.46
2017-09-16T04:48:13.697Z,976.46
2017-09-16T04:49:23.975Z,976.48
2017-09-16T04:50:34.258Z,976.49
2017-09-16T04:51:44.535Z,976.51
2017-09-16T04:52:54.811Z,976.54
2017-09-16T04:54:04.763Z,976.55
2017-09-16T04:55:15.040Z,976.63
2017-09-16T04:56:25.317Z,976.65
2017-09-16T04:57:35.261Z,976.64
2017-09-16T04:58:45.540Z,976.63
2017-09-16T04:59:55.815Z,976.64
2017-09-16T05:01:06.090Z,976.65
2017-09-16T05:02:16.362Z,976.67
2017-09-16T05:03:26.309Z,976.7
2017-09-16T05:04:36.255Z,976.73
2017-09-16T05:05:46.531Z,976.75
2017-09-16T05:06:56.483Z,976.8
2017-09-16T05:08:06.760Z,976.78
2017-09-16T05:09:16.390Z,976.82
2017-09-16T05:10:26.662Z,976.83
2017-09-16T05:11:36.611Z,976.85
2017-09-16T05:12:46.878Z,976.83
2017-09-16T05:13:56.193Z,976.87
2017-09-16T05:15:06.468Z,976.84
2017-09-16T05:16:16.417Z,976.87
2017-09-16T05:17:26.691Z,976.9
2017-09-16T05:18:36.963Z,976.92
2017-09-16T05:19:46.936Z,976.9
2017-09-16T05:20:57.210Z,976.9
2017-09-16T05:22:07.485Z,976.97
2017-09-16T05:23:16.794Z,976.98
2017-09-16T05:24:27.068Z,976.99
2017-09-16T05:25:37.341Z,977.01
2017-09-16T05:26:46.971Z,977.01
2017-09-16T05:27:56.929Z,977.04
2017-09-16T05:29:06.559Z,977.02
2017-09-16T05:30:16.835Z,977.03
2017-09-16T05:31:27.109Z,977.05
2017-09-16T05:32:37.379Z,977
2017-09-16T05:33:47.659Z,977.08
2017-09-16T05:34:57.934Z,977.06
2017-09-16T05:36:07.882Z,977.06
2017-09-16T05:37:17.836Z,977.08
2017-09-16T05:38:28.108Z,977.1
2017-09-16T05:39:38.384Z,977.11
2017-09-16T05:40:50.433Z,977.08
2017-09-16T05:42:00.386Z,977.12
2017-09-16T05:43:10.660Z,977.17
2017-09-16T05:44:20.612Z,977.18
2017-09-16T05:45:30.893Z,977.21
2017-09-16T05:46:41.165Z,977.22
2017-09-16T05:47:51.442Z,977.26
2017-09-16T05:49:01.721Z,977.28
2017-09-16T05:50:11.993Z,977.28
2017-09-16T05:51:22.269Z,977.31
2017-09-16T05:52:31.900Z,977.32
2017-09-16T05:53:42.178Z,977.34
2017-09-16T05:54:52.125Z,977.36
2017-09-16T05:56:02.404Z,977.35
2017-09-16T05:57:12.681Z,977.41
2017-09-16T05:58:22.953Z,977.39
2017-09-16T05:59:33.227Z,977.41
2017-09-16T06:00:43.183Z,977.45
2017-09-16T06:01:53.167Z,977.41
2017-09-16T06:03:03.454Z,977.43
2017-09-16T06:04:13.730Z,977.46
2017-09-16T06:05:24.004Z,977.44
2017-09-16T06:06:33.662Z,977.49
2017-09-16T06:07:43.615Z,977.53
2017-09-16T06:08:53.887Z,977.54
2017-09-16T06:10:04.177Z,977.56
2017-09-16T06:11:14.456Z,977.61
2017-09-16T06:12:24.407Z,977.64
2017-09-16T06:13:34.687Z,977.65
2017-09-16T06:14:44.637Z,977.64
2017-09-16T06:15:54.592Z,977.66
2017-09-16T06:17:04.220Z,977.67
2017-09-16T06:18:13.848Z,977.74
2017-09-16T06:19:23.796Z,977.75
2017-09-16T06:20:34.064Z,977.79
2017-09-16T06:21:43.690Z,977.77
2017-09-16T06:22:53.970Z,977.78
2017-09-16T06:24:04.260Z,977.83
2017-09-16T06:25:14.213Z,977.84
2017-09-16T06:26:24.165Z,977.89
2017-09-16T06:27:34.121Z,977.84
2017-09-16T06:28:43.750Z,977.89
2017-09-16T06:29:54.027Z,977.89
2017-09-16T06:31:04.298Z,977.91
2017-09-16T06:32:14.249Z,977.93
2017-09-16T06:33:24.206Z,977.9
2017-09-16T06:34:34.158Z,977.94
2017-09-16T06:35:44.115Z,977.91
2017-09-16T06:36:53.743Z,977.99
2017-09-16T06:38:04.016Z,977.93
2017-09-16T06:39:13.966Z,977.97
2017-09-16T06:40:24.239Z,978.01
2017-09-16T06:41:34.515Z,977.98
2017-09-16T06:42:44.788Z,977.99
2017-09-16T06:43:54.770Z,978.04
2017-09-16T06:45:05.045Z,978.06
2017-09-16T06:46:15.315Z,978.07
2017-09-16T06:47:25.603Z,978.11
2017-09-16T06:48:35.553Z,978.09
2017-09-16T06:49:45.834Z,978.07
2017-09-16T06:50:56.117Z,978.03
2017-09-16T06:52:06.395Z,978.03
2017-09-16T06:53:16.682Z,978.04
2017-09-16T06:54:26.318Z,978
2017-09-16T06:55:36.271Z,978.03
2017-09-16T06:56:46.552Z,978.09
2017-09-16T06:57:56.846Z,978.1
2017-09-16T06:59:07.135Z,978.13
2017-09-16T07:00:17.088Z,978.14
2017-09-16T07:01:27.368Z,978.18
2017-09-16T07:02:37.321Z,978.23
2017-09-16T07:03:47.592Z,978.25
2017-09-16T07:04:57.546Z,978.25
2017-09-16T07:06:07.827Z,978.31
2017-09-16T07:07:18.110Z,978.3
2017-09-16T07:08:28.386Z,978.32
2017-09-16T07:09:38.019Z,978.34
2017-09-16T07:10:48.307Z,978.32
2017-09-16T07:11:58.580Z,978.36
2017-09-16T07:13:08.871Z,978.38
2017-09-16T07:14:18.837Z,978.38
2017-09-16T07:15:28.791Z,978.41
2017-09-16T07:16:38.744Z,978.46
2017-09-16T07:17:48.702Z,978.49
2017-09-16T07:18:58.653Z,978.52
2017-09-16T07:20:08.930Z,978.55
2017-09-16T07:21:18.881Z,978.55
2017-09-16T07:22:28.188Z,978.57
2017-09-16T07:23:38.463Z,978.53
2017-09-16T07:24:48.750Z,978.55
2017-09-16T07:25:58.705Z,978.58
2017-09-16T07:27:08.983Z,978.64
2017-09-16T07:28:19.259Z,978.66
2017-09-16T07:29:29.211Z,978.67
2017-09-16T07:30:38.847Z,978.66
2017-09-16T07:31:49.121Z,978.68
2017-09-16T07:32:59.139Z,978.7
2017-09-16T07:34:09.426Z,978.72
2017-09-16T07:35:19.700Z,978.74
2017-09-16T07:36:29.647Z,978.75
2017-09-16T07:37:39.923Z,978.78
2017-09-16T07:38:50.201Z,978.81
2017-09-16T07:40:00.475Z,978.81
2017-09-16T07:41:09.787Z,978.85
2017-09-16T07:42:20.068Z,978.82
2017-09-16T07:43:30.020Z,978.83
2017-09-16T07:44:40.299Z,978.83
2017-09-16T07:45:50.252Z,978.86
2017-09-16T07:47:00.533Z,978.85
2017-09-16T07:48:10.820Z,978.81
2017-09-16T07:49:21.099Z,978.83
2017-09-16T07:50:31.379Z,978.87
2017-09-16T07:51:41.656Z,978.89
2017-09-16T07:52:51.611Z,978.9
2017-09-16T07:54:01.899Z,978.89
2017-09-16T07:55:12.183Z,978.9
2017-09-16T07:56:22.474Z,978.94
2017-09-16T07:57:32.755Z,978.92
2017-09-16T07:58:43.026Z,978.97
2017-09-16T07:59:52.982Z,978.96
2017-09-16T08:01:03.258Z,979
2017-09-16T08:02:13.218Z,979
2017-09-16T08:03:22.852Z,979.03
2017-09-16T08:04:32.812Z,979.05
2017-09-16T08:05:42.762Z,979.06
2017-09-16T08:06:52.715Z,979.04
2017-09-16T08:08:03.000Z,979.08
2017-09-16T08:09:13.290Z,979.09
2017-09-16T08:10:23.569Z,979.08
2017-09-16T08:11:33.850Z,979.11
2017-09-16T08:12:43.479Z,979.1
2017-09-16T08:13:53.751Z,979.12
2017-09-16T08:15:04.033Z,979.11
2017-09-16T08:16:14.307Z,979.13
2017-09-16T08:17:23.616Z,979.12
2017-09-16T08:18:33.893Z,979.17
2017-09-16T08:19:43.527Z,979.16
2017-09-16T08:20:53.806Z,979.19
2017-09-16T08:22:03.119Z,979.18
2017-09-16T08:23:13.076Z,979.2
2017-09-16T08:24:22.740Z,979.22
2017-09-16T08:25:33.042Z,979.24
2017-09-16T08:26:42.689Z,979.26
2017-09-16T08:27:52.972Z,979.25
2017-09-16T08:29:02.930Z,979.25
2017-09-16T08:30:13.213Z,979.24
2017-09-16T08:31:22.853Z,979.26
2017-09-16T08:32:33.135Z,979.23
2017-09-16T08:33:42.767Z,979.27
2017-09-16T08:34:53.054Z,979.32
2017-09-16T08:36:03.012Z,979.36
2017-09-16T08:37:13.290Z,979.34
2017-09-16T08:38:22.925Z,979.4
2017-09-16T08:39:32.882Z,979.41
2017-09-16T08:40:43.165Z,979.43
2017-09-16T08:41:53.441Z,979.42
2017-09-16T08:43:03.398Z,979.4
2017-09-16T08:44:13.683Z,979.4
2017-09-16T08:45:23.640Z,979.42
2017-09-16T08:46:33.602Z,979.43
2017-09-16T08:47:43.885Z,979.47
2017-09-16T08:48:54.172Z,979.44
2017-09-16T08:50:04.128Z,979.44
2017-09-16T08:51:14.426Z,979.5
2017-09-16T08:52:24.713Z,979.48
2017-09-16T08:53:34.995Z,979.49
2017-09-16T08:54:45.288Z,979.5
2017-09-16T08:55:55.562Z,979.57
2017-09-16T08:57:05.844Z,979.58
2017-09-16T08:58:16.117Z,979.57
2017-09-16T08:59:26.074Z,979.6
2017-09-16T09:00:36.346Z,979.6
2017-09-16T09:01:46.627Z,979.61
2017-09-16T09:02:56.288Z,979.62
2017-09-16T09:04:05.939Z,979.62
2017-09-16T09:05:16.217Z,979.64
2017-09-16T09:06:25.851Z,979.68
2017-09-16T09:07:35.814Z,979.65
2017-09-16T09:08:45.769Z,979.64
2017-09-16T09:09:56.083Z,979.65
2017-09-16T09:11:06.042Z,979.62
2017-09-16T09:12:16.003Z,979.65
2017-09-16T09:13:25.958Z,979.66
2017-09-16T09:14:36.242Z,979.71
2017-09-16T09:15:46.518Z,979.68
2017-09-16T09:16:56.797Z,979.65
2017-09-16T09:18:07.074Z,979.67
2017-09-16T09:19:17.028Z,979.69
2017-09-16T09:20:26.987Z,979.69
2017-09-16T09:21:37.257Z,979.71
2017-09-16T09:22:47.208Z,979.68
2017-09-16T09:23:57.484Z,979.64
2017-09-16T09:25:07.441Z,979.66
2017-09-16T09:26:17.398Z,979.69
2017-09-16T09:27:27.678Z,979.69
2017-09-16T09:28:37.631Z,979.69
2017-09-16T09:29:47.913Z,979.72
2017-09-16T09:30:58.210Z,979.69
2017-09-16T09:32:08.494Z,979.74
2017-09-16T09:33:18.450Z,979.74
2017-09-16T09:34:28.735Z,979.75
2017-09-16T09:35:39.006Z,979.74
2017-09-16T09:36:49.284Z,979.78
2017-09-16T09:37:59.250Z,979.76
2017-09-16T09:39:09.201Z,979.77
2017-09-16T09:40:19.487Z,979.76
2017-09-16T09:41:29.440Z,979.8
2017-09-16T09:42:39.764Z,979.82
2017-09-16T09:43:50.038Z,979.81
2017-09-16T09:44:59.668Z,979.81
2017-09-16T09:46:09.620Z,979.85
2017-09-16T09:47:19.935Z,979.87
2017-09-16T09:48:30.221Z,979.86
2017-09-16T09:49:40.177Z,979.83
2017-09-16T09:50:50.133Z,979.83
2017-09-16T09:52:00.094Z,979.88
2017-09-16T09:53:10.049Z,979.85
2017-09-16T09:54:20.007Z,979.89
2017-09-16T09:55:30.283Z,979.83
2017-09-16T09:56:40.561Z,979.87
2017-09-16T09:57:50.202Z,979.86
2017-09-16T09:59:00.476Z,979.85
2017-09-16T10:00:10.431Z,979.87
2017-09-16T10:01:20.706Z,979.86
2017-09-16T10:02:30.992Z,979.84
2017-09-16T10:03:41.273Z,979.89
2017-09-16T10:04:51.225Z,979.85
2017-09-16T10:06:01.204Z,979.87
2017-09-16T10:07:11.479Z,979.84
2017-09-16T10:08:21.437Z,979.86
2017-09-16T10:09:31.400Z,979.87
2017-09-16T10:10:41.382Z,979.85
2017-09-16T10:11:51.015Z,979.84
2017-09-16T10:13:01.312Z,979.86
2017-09-16T10:14:11.591Z,979.83
2017-09-16T10:15:21.869Z,979.87
2017-09-16T10:16:31.829Z,979.87
2017-09-16T10:17:41.790Z,979.85
2017-09-16T10:18:52.077Z,979.88
2017-09-16T10:20:02.365Z,979.95
2017-09-16T10:21:12.325Z,979.93
2017-09-16T10:22:22.281Z,979.93
2017-09-16T10:23:32.248Z,980
2017-09-16T10:24:41.886Z,979.99
2017-09-16T10:25:52.209Z,979.99
2017-09-16T10:27:02.167Z,980.04
2017-09-16T10:28:12.444Z,980.04
2017-09-16T10:29:22.721Z,980.08
2017-09-16T10:30:33.006Z,980.07
2017-09-16T10:31:42.318Z,980.11
2017-09-16T10:32:52.602Z,980.13
2017-09-16T10:34:02.558Z,980.13
2017-09-16T10:35:12.512Z,980.14
2017-09-16T10:36:22.145Z,980.18
2017-09-16T10:37:31.781Z,980.15
2017-09-16T10:38:41.736Z,980.18
2017-09-16T10:39:51.702Z,980.14
2017-09-16T10:41:01.994Z,980.14
2017-09-16T10:42:11.952Z,980.16
2017-09-16T10:43:21.921Z,980.18
2017-09-16T10:44:32.203Z,980.2
2017-09-16T10:45:41.836Z,980.23
2017-09-16T10:46:51.799Z,980.24
2017-09-16T10:48:02.089Z,980.23
2017-09-16T10:49:12.047Z,980.27
2017-09-16T10:50:22.013Z,980.32
2017-09-16T10:51:32.294Z,980.29
2017-09-16T10:52:42.273Z,980.33
2017-09-16T10:53:52.241Z,980.3
2017-09-16T10:55:02.207Z,980.32
2017-09-16T10:56:12.525Z,980.27
2017-09-16T10:57:22.488Z,980.28
2017-09-16T10:58:32.447Z,980.3
2017-09-16T10:59:42.733Z,980.33
2017-09-16T11:00:52.696Z,980.34
2017-09-16T11:02:02.983Z,980.3
2017-09-16T11:03:12.938Z,980.32
2017-09-16T11:04:22.899Z,980.38
2017-09-16T11:05:33.178Z,980.36
2017-09-16T11:06:43.460Z,980.43
2017-09-16T11:07:53.422Z,980.43
2017-09-16T11:09:03.700Z,980.44
2017-09-16T11:10:13.984Z,980.41
2017-09-16T11:11:24.261Z,980.41
2017-09-16T11:12:34.219Z,980.43
2017-09-16T11:13:43.857Z,980.45
2017-09-16T11:14:54.145Z,980.44
2017-09-16T11:16:04.433Z,980.44
2017-09-16T11:17:14.744Z,980.46
2017-09-16T11:18:25.036Z,980.43
2017-09-16T11:19:34.678Z,980.4
2017-09-16T11:20:44.640Z,980.43
2017-09-16T11:21:54.609Z,980.42
2017-09-16T11:23:04.579Z,980.38
2017-09-16T11:24:14.221Z,980.48
2017-09-16T11:25:23.860Z,980.39
2017-09-16T11:26:33.821Z,980.43
2017-09-16T11:27:44.120Z,980.42
2017-09-16T11:28:54.415Z,980.39
2017-09-16T11:30:04.700Z,980.48
2017-09-16T11:31:14.675Z,980.49
2017-09-16T11:32:24.635Z,980.43
2017-09-16T11:33:34.916Z,980.47
2017-09-16T11:34:44.879Z,980.44
2017-09-16T11:35:54.523Z,980.48
2017-09-16T11:37:04.811Z,980.53
2017-09-16T11:38:15.127Z,980.51
2017-09-16T11:39:24.769Z,980.5
2017-09-16T11:40:34.734Z,980.54
2017-09-16T11:41:44.693Z,980.56
2017-09-16T11:42:54.654Z,980.58
2017-09-16T11:44:04.943Z,980.64
2017-09-16T11:45:14.902Z,980.64
2017-09-16T11:46:24.863Z,980.67
2017-09-16T11:47:35.147Z,980.74
2017-09-16T11:48:44.784Z,980.75
2017-09-16T11:49:54.750Z,980.69
2017-09-16T11:51:05.039Z,980.74
2017-09-16T11:52:14.999Z,980.77
2017-09-16T11:53:24.640Z,980.82
2017-09-16T11:54:34.927Z,980.79
2017-09-16T11:55:45.246Z,980.83
2017-09-16T11:56:55.537Z,980.8
2017-09-16T11:58:05.827Z,980.82
2017-09-16T11:59:16.116Z,980.81
2017-09-16T12:00:26.430Z,980.78
2017-09-16T12:01:36.721Z,980.87
2017-09-16T12:02:47.012Z,980.92
2017-09-16T12:03:56.652Z,980.96
2017-09-16T12:05:06.618Z,980.94
2017-09-16T12:06:15.976Z,980.94
2017-09-16T12:07:26.263Z,980.85
2017-09-16T12:08:36.557Z,980.85
2017-09-16T12:09:46.524Z,980.88
2017-09-16T12:10:56.493Z,980.85
2017-09-16T12:12:06.457Z,980.87
2017-09-16T12:13:16.751Z,980.94
2017-09-16T12:14:26.727Z,980.97
2017-09-16T12:15:37.027Z,980.91
2017-09-16T12:16:46.998Z,980.9
2017-09-16T12:17:56.962Z,980.88
2017-09-16T12:19:06.929Z,980.9
2017-09-16T12:20:17.218Z,980.9
2017-09-16T12:21:27.512Z,980.9
2017-09-16T12:22:37.829Z,980.94
2017-09-16T12:23:48.128Z,980.92
2017-09-16T12:24:58.420Z,980.91
2017-09-16T12:26:08.385Z,980.94
2017-09-16T12:27:18.346Z,980.93
2017-09-16T12:28:28.312Z,980.95
2017-09-16T12:29:38.279Z,980.93
2017-09-16T12:30:47.929Z,980.94
2017-09-16T12:31:58.217Z,980.89
2017-09-16T12:33:08.505Z,980.9
2017-09-16T12:34:18.792Z,980.9
2017-09-16T12:35:28.755Z,980.89
2017-09-16T12:36:38.721Z,980.95
2017-09-16T12:37:49.005Z,980.94
2017-09-16T12:38:58.969Z,981
2017-09-16T12:40:09.255Z,980.98
2017-09-16T12:41:19.483Z,981.02
2017-09-16T12:42:29.780Z,980.97
2017-09-16T12:43:40.074Z,980.94
2017-09-16T12:44:50.361Z,980.96
2017-09-16T12:46:00.648Z,980.96
2017-09-16T12:47:10.941Z,981
2017-09-16T12:48:20.589Z,981
2017-09-16T12:49:30.884Z,981.07
2017-09-16T12:50:40.850Z,981.04
2017-09-16T12:51:51.136Z,981.01
2017-09-16T12:53:01.146Z,981.06
2017-09-16T12:54:11.434Z,981.11
2017-09-16T12:55:21.721Z,981.12
2017-09-16T12:56:31.686Z,981.19
2017-09-16T12:57:41.646Z,981.63
2017-09-16T12:58:51.935Z,981.3
2017-09-16T13:00:02.226Z,981
2017-09-16T13:01:12.196Z,981.04
2017-09-16T13:02:22.486Z,981.1
2017-09-16T13:03:32.461Z,981.09
2017-09-16T13:04:42.760Z,981.15
2017-09-16T13:05:52.731Z,981.1
2017-09-16T13:07:02.373Z,981.06
2017-09-16T13:08:12.339Z,981.07
2017-09-16T13:09:22.629Z,981.02
2017-09-16T13:10:32.948Z,981.08
2017-09-16T13:11:43.236Z,980.99
2017-09-16T13:12:53.542Z,981.01
2017-09-16T13:14:03.837Z,981.03
2017-09-16T13:15:14.132Z,981.04
2017-09-16T13:16:24.100Z,981.03
2017-09-16T13:17:34.067Z,981.05
2017-09-16T13:18:44.357Z,981.06
2017-09-16T13:19:54.008Z,981.05
2017-09-16T13:21:03.987Z,981.05
2017-09-16T13:22:14.281Z,981.09
2017-09-16T13:23:24.566Z,981.07
2017-09-16T13:24:34.544Z,981.05
2017-09-16T13:25:44.508Z,981.04
2017-09-16T13:26:54.797Z,981.03
2017-09-16T13:28:05.088Z,980.99
2017-09-16T13:29:15.060Z,980.98
2017-09-16T13:30:25.345Z,980.95
2017-09-16T13:31:35.636Z,981
2017-09-16T13:32:45.962Z,981
2017-09-16T13:33:56.251Z,981.02
2017-09-16T13:35:06.545Z,981.02
2017-09-16T13:36:16.826Z,981.02
2017-09-16T13:37:26.791Z,981.02
2017-09-16T13:38:36.756Z,981
2017-09-16T13:39:47.075Z,981.05
2017-09-16T13:40:57.039Z,981.04
2017-09-16T13:42:07.323Z,981.05
2017-09-16T13:43:17.283Z,981.06
2017-09-16T13:44:27.246Z,981.08
2017-09-16T13:45:37.536Z,981.11
2017-09-16T13:46:47.504Z,981.11
2017-09-16T13:47:57.146Z,981.13
2017-09-16T13:49:07.111Z,981.14
2017-09-16T13:50:17.397Z,981.14
2017-09-16T13:51:27.679Z,981.16
2017-09-16T13:52:36.998Z,981.18
2017-09-16T13:53:47.285Z,981.15
2017-09-16T13:54:57.246Z,981.15
2017-09-16T13:56:07.209Z,981.18
2017-09-16T13:57:17.173Z,981.23
2017-09-16T13:58:27.135Z,981.22
2017-09-16T13:59:37.430Z,981.21
2017-09-16T14:00:47.719Z,981.2
2017-09-16T14:01:58.045Z,981.22
2017-09-16T14:03:08.009Z,981.23
2017-09-16T14:04:17.969Z,981.21
2017-09-16T14:05:28.252Z,981.21
2017-09-16T14:06:37.892Z,981.25
2017-09-16T14:07:47.859Z,981.24
2017-09-16T14:08:57.822Z,981.26
2017-09-16T14:10:08.108Z,981.28
2017-09-16T14:11:18.073Z,981.29
2017-09-16T14:12:28.359Z,981.39
2017-09-16T14:13:38.639Z,981.32
2017-09-16T14:14:48.600Z,981.32
2017-09-16T14:15:58.887Z,981.29
2017-09-16T14:17:08.852Z,981.27
2017-09-16T14:18:19.133Z,981.29
2017-09-16T14:19:28.773Z,981.28
2017-09-16T14:20:38.747Z,981.34
2017-09-16T14:21:49.062Z,981.31
2017-09-16T14:22:59.022Z,981.33
2017-09-16T14:24:09.335Z,981.32
2017-09-16T14:25:19.654Z,981.33
2017-09-16T14:26:29.936Z,981.3
2017-09-16T14:27:40.227Z,981.33
2017-09-16T14:28:50.190Z,981.39
2017-09-16T14:29:59.836Z,981.52
2017-09-16T14:31:09.805Z,981.57
2017-09-16T14:32:19.451Z,981.57
2017-09-16T14:33:29.746Z,981.37
2017-09-16T14:34:40.027Z,981.37
2017-09-16T14:35:49.990Z,981.54
2017-09-16T14:37:00.284Z,981.88
2017-09-16T14:38:10.257Z,981.91